Time;durP1;ratioP1;P1;durP2;ratioP2;P2;SDS_P1;SDS_P2;PMS_P1;PMS_P2;Temp;Humidity;BMP_temperature;BMP_pressure;BME280_temperature;BME280_humidity;BME280_pressure;Samples;Min_cycle;Max_cycle;Signal;HPM_P1;HPM_P2
2022/08/15 00:00:25;;;;;;;3.88;1.48;;;25.80;94.90;;;;;;5013408;28;20202;-82
2022/08/15 00:02:50;;;;;;;3.10;1.55;;;26.00;94.70;;;;;;5014733;28;20188;-83
2022/08/15 00:05:22;;;;;;;4.68;1.67;;;25.90;94.70;;;;;;5014455;28;20633;-83
2022/08/15 00:07:48;;;;;;;2.05;1.50;;;25.90;94.90;;;;;;5014140;28;20199;-82
2022/08/15 00:10:17;;;;;;;9.90;1.63;;;25.80;95.00;;;;;;5014380;28;20196;-83
2022/08/15 00:12:43;;;;;;;7.13;1.95;;;25.70;95.10;;;;;;5012906;28;20232;-83
2022/08/15 00:15:12;;;;;;;2.33;1.63;;;25.90;95.10;;;;;;5014560;28;20196;-83
2022/08/15 00:17:40;;;;;;;1.65;1.55;;;26.00;94.90;;;;;;5011883;28;20226;-83
2022/08/15 00:20:08;;;;;;;10.13;1.65;;;26.00;94.80;;;;;;5013700;28;20197;-83
2022/08/15 00:22:34;;;;;;;9.23;1.45;;;26.10;95.00;;;;;;5012733;28;20537;-83
2022/08/15 00:24:59;;;;;;;3.90;1.60;;;26.10;94.90;;;;;;5014115;28;20161;-83
2022/08/15 00:27:25;;;;;;;3.47;2.00;;;26.10;94.80;;;;;;5013133;28;20695;-83
2022/08/15 00:29:51;;;;;;;4.60;1.85;;;26.00;95.30;;;;;;5014301;28;20175;-83
2022/08/15 00:32:23;;;;;;;4.40;1.30;;;25.90;95.20;;;;;;5013741;28;20223;-82
2022/08/15 00:34:50;;;;;;;3.95;1.60;;;26.00;95.30;;;;;;5012534;28;20176;-84
2022/08/15 00:37:17;;;;;;;5.88;1.58;;;26.00;95.20;;;;;;5012338;28;20176;-83
2022/08/15 00:39:44;;;;;;;6.60;1.55;;;25.90;95.40;;;;;;5013900;28;20172;-83
2022/08/15 00:42:11;;;;;;;2.35;1.60;;;25.80;95.60;;;;;;5012454;28;20571;-83
2022/08/15 00:44:44;;;;;;;3.40;1.38;;;25.80;95.70;;;;;;5012567;28;20186;-83
2022/08/15 00:47:17;;;;;;;3.50;1.48;;;25.70;96.10;;;;;;5012342;28;20261;-83
2022/08/15 00:49:45;;;;;;;2.35;1.45;;;25.60;96.40;;;;;;5012482;28;20173;-83
2022/08/15 00:52:13;;;;;;;2.70;1.48;;;25.40;96.70;;;;;;5012364;28;20204;-83
2022/08/15 00:54:52;;;;;;;3.30;2.00;;;25.50;96.70;;;;;;5013221;28;20708;-82
2022/08/15 00:57:25;;;;;;;3.28;1.60;;;25.40;96.90;;;;;;5013791;28;20179;-82
2022/08/15 00:59:54;;;;;;;4.07;1.85;;;25.20;97.50;;;;;;5013135;28;20164;-83
2022/08/15 01:02:27;;;;;;;4.88;1.60;;;25.10;98.10;;;;;;5026667;28;20168;-83
2022/08/15 01:04:52;;;;;;;1.67;1.33;;;25.20;97.90;;;;;;5025689;28;20157;-83
2022/08/15 01:07:20;;;;;;;6.45;2.13;;;25.20;97.90;;;;;;5023366;28;20205;-83
2022/08/15 01:09:46;;;;;;;4.78;1.90;;;25.30;97.80;;;;;;5027202;28;20176;-82
2022/08/15 01:12:16;;;;;;;3.30;1.75;;;25.20;98.00;;;;;;5037783;28;20222;-83
2022/08/15 01:14:46;;;;;;;6.22;1.52;;;25.00;98.50;;;;;;5036922;28;20173;-84
2022/08/15 01:17:13;;;;;;;8.55;2.58;;;24.90;99.40;;;;;;5037302;28;20172;-83
2022/08/15 01:20:01;;;;;;;2.38;1.73;;;24.60;99.90;;;;;;5030792;28;20203;-83
2022/08/15 01:22:32;;;;;;;1.80;1.58;;;24.50;99.90;;;;;;5005639;28;20227;-82
2022/08/15 01:25:06;;;;;;;6.00;1.88;;;24.50;99.90;;;;;;5011769;28;20645;-83
2022/08/15 01:27:56;;;;;;;2.42;1.23;;;24.50;99.90;;;;;;5011848;28;20637;-84
2022/08/15 01:30:26;;;;;;;4.22;1.55;;;24.60;99.90;;;;;;5011884;28;20192;-83
2022/08/15 01:32:53;;;;;;;5.18;1.60;;;24.50;99.90;;;;;;5011833;28;20811;-84
2022/08/15 01:35:19;;;;;;;6.97;1.63;;;24.40;99.90;;;;;;5012785;28;20180;-82
2022/08/15 01:37:45;;;;;;;2.50;1.63;;;24.40;99.90;;;;;;5013225;28;20164;-82
2022/08/15 01:40:39;;;;;;;2.65;1.80;;;24.40;99.90;;;;;;5011478;28;20185;-81
2022/08/15 01:43:07;;;;;;;2.15;1.48;;;24.30;99.90;;;;;;5011703;28;20164;-82
2022/08/15 01:45:34;;;;;;;2.75;1.60;;;24.20;99.90;;;;;;5012426;28;20558;-83
2022/08/15 01:48:12;;;;;;;3.08;1.58;;;24.30;99.90;;;;;;5011422;28;20164;-82
2022/08/15 01:50:44;;;;;;;2.85;1.75;;;24.40;99.90;;;;;;5011243;28;20198;-83
2022/08/15 01:53:41;;;;;;;2.42;1.55;;;24.20;99.90;;;;;;5011514;28;20343;-82
2022/08/15 01:56:26;;;;;;;6.43;1.92;;;24.10;99.90;;;;;;5003029;28;20655;-82
2022/08/15 01:58:52;;;;;;;7.20;1.83;;;24.10;99.90;;;;;;5011379;28;20615;-81
2022/08/15 02:01:34;;;;;;;6.20;1.70;;;24.00;99.90;;;;;;5011153;28;20224;-82
2022/08/15 02:04:01;;;;;;;5.28;1.55;;;24.00;99.90;;;;;;5012782;28;20168;-83
2022/08/15 02:06:30;;;;;;;5.80;2.05;;;24.00;99.90;;;;;;5012619;28;20175;-82
2022/08/15 02:08:56;;;;;;;5.95;1.63;;;24.00;99.90;;;;;;5011130;28;20600;-81
2022/08/15 02:11:26;;;;;;;2.92;1.70;;;24.00;99.90;;;;;;5012022;28;20279;-83
2022/08/15 02:13:54;;;;;;;3.20;2.25;;;24.00;99.90;;;;;;5011172;28;20535;-82
2022/08/15 02:16:22;;;;;;;5.28;1.70;;;23.90;99.90;;;;;;5011311;28;20168;-81
2022/08/15 02:18:47;;;;;;;2.85;1.55;;;23.80;99.90;;;;;;5010943;28;20179;-82
2022/08/15 02:21:13;;;;;;;5.97;1.67;;;23.90;99.90;;;;;;5010971;28;20279;-83
2022/08/15 02:23:39;;;;;;;7.80;1.77;;;23.90;99.90;;;;;;5012417;28;20219;-82
2022/08/15 02:26:07;;;;;;;2.10;1.88;;;24.00;99.90;;;;;;5012667;28;20632;-82
2022/08/15 02:28:34;;;;;;;3.05;1.70;;;24.00;99.90;;;;;;5011233;28;20172;-84
2022/08/15 02:31:00;;;;;;;2.38;1.50;;;24.20;99.90;;;;;;5010988;28;20192;-82
2022/08/15 02:33:27;;;;;;;2.47;1.88;;;24.00;99.90;;;;;;5011124;28;20180;-82
2022/08/15 02:35:53;;;;;;;1.55;1.45;;;24.10;99.90;;;;;;5010752;28;20172;-82
2022/08/15 02:38:19;;;;;;;8.25;2.05;;;24.20;99.90;;;;;;5010827;28;20179;-84
2022/08/15 02:40:44;;;;;;;5.60;1.17;;;24.20;99.90;;;;;;5013698;28;20672;-82
2022/08/15 02:43:13;;;;;;;4.10;2.47;;;24.10;99.90;;;;;;5014936;28;20165;-83
2022/08/15 02:45:47;;;;;;;4.22;1.25;;;24.30;99.90;;;;;;5014375;28;20212;-82
2022/08/15 02:48:14;;;;;;;2.65;1.70;;;24.20;99.90;;;;;;5014608;28;20617;-83
2022/08/15 02:50:40;;;;;;;5.18;1.60;;;24.20;99.90;;;;;;5014397;28;20276;-82
2022/08/15 02:53:15;;;;;;;2.00;1.42;;;24.30;99.90;;;;;;5016028;28;20215;-82
2022/08/15 02:55:43;;;;;;;1.60;1.50;;;24.20;99.90;;;;;;5015649;28;20527;-83
2022/08/15 02:58:09;;;;;;;2.20;1.20;;;24.20;99.90;;;;;;5015951;28;20175;-83
2022/08/15 03:00:35;;;;;;;2.92;1.63;;;24.10;99.90;;;;;;5014682;28;20276;-82
2022/08/15 03:03:07;;;;;;;2.15;1.50;;;24.20;99.90;;;;;;5014878;28;20271;-83
2022/08/15 03:05:35;;;;;;;1.75;1.40;;;24.30;99.90;;;;;;5014050;28;20211;-84
2022/08/15 03:08:02;;;;;;;6.70;1.60;;;24.20;99.90;;;;;;5015516;28;20604;-83
2022/08/15 03:10:29;;;;;;;1.85;1.40;;;24.10;99.90;;;;;;5015260;28;20188;-85
2022/08/15 03:13:00;;;;;;;6.78;2.47;;;24.20;99.90;;;;;;5015286;28;20649;-83
2022/08/15 03:15:33;;;;;;;5.05;1.90;;;24.10;99.90;;;;;;5014321;28;20207;-83
2022/08/15 03:17:59;;;;;;;8.00;2.03;;;24.20;99.90;;;;;;5014285;28;20172;-83
2022/08/15 03:20:25;;;;;;;5.47;1.90;;;24.30;99.90;;;;;;5013700;28;20192;-83
2022/08/15 03:22:53;;;;;;;3.90;1.90;;;24.30;99.90;;;;;;5013893;28;20543;-82
2022/08/15 03:25:21;;;;;;;9.65;1.70;;;24.30;99.90;;;;;;5015502;28;20231;-83
2022/08/15 03:27:46;;;;;;;2.67;1.73;;;24.20;99.90;;;;;;5015326;28;20177;-84
2022/08/15 03:30:14;;;;;;;2.65;1.63;;;24.00;99.90;;;;;;5013973;28;20211;-82
2022/08/15 03:32:49;;;;;;;5.43;1.98;;;23.80;99.90;;;;;;5013710;28;20665;-82
2022/08/15 03:35:16;;;;;;;4.88;2.00;;;23.90;99.90;;;;;;5013615;28;20167;-83
2022/08/15 03:37:42;;;;;;;4.45;2.50;;;23.90;99.90;;;;;;5013936;28;20172;-82
2022/08/15 03:40:09;;;;;;;20.80;2.10;;;23.60;99.90;;;;;;5013580;28;20181;-83
2022/08/15 03:42:35;;;;;;;2.60;2.25;;;23.60;99.90;;;;;;5014935;28;20507;-83
2022/08/15 03:45:09;;;;;;;6.60;1.90;;;23.50;99.90;;;;;;5013723;28;20169;-83
2022/08/15 03:47:36;;;;;;;5.53;2.22;;;23.50;99.90;;;;;;5014833;28;20178;-83
2022/08/15 03:50:05;;;;;;;10.32;2.50;;;23.40;99.90;;;;;;5013376;28;20169;-83
2022/08/15 03:52:32;;;;;;;3.08;2.40;;;23.40;99.90;;;;;;5014301;28;20288;-84
2022/08/15 03:55:04;;;;;;;5.70;2.55;;;23.20;99.90;;;;;;5014585;28;20164;-82
2022/08/15 03:57:30;;;;;;;3.58;2.08;;;23.20;99.90;;;;;;5013452;28;20263;-82
2022/08/15 03:59:56;;;;;;;4.57;2.40;;;23.30;99.90;;;;;;5014480;28;20588;-83
2022/08/15 04:02:24;;;;;;;3.83;2.67;;;23.30;99.90;;;;;;5013306;28;21444;-84
2022/08/15 04:04:51;;;;;;;4.15;2.30;;;23.40;99.90;;;;;;5013367;28;20194;-82
2022/08/15 04:07:16;;;;;;;11.68;3.17;;;23.50;99.90;;;;;;5014416;28;20183;-82
2022/08/15 04:09:43;;;;;;;11.95;2.50;;;23.40;99.90;;;;;;5014493;28;20169;-83
2022/08/15 04:12:09;;;;;;;4.50;2.67;;;23.20;99.90;;;;;;5012908;28;20208;-82
2022/08/15 04:14:35;;;;;;;5.85;2.25;;;23.30;99.90;;;;;;5014319;28;20207;-83
2022/08/15 04:17:03;;;;;;;2.85;2.33;;;23.30;99.90;;;;;;5013010;28;20629;-82
2022/08/15 04:19:29;;;;;;;8.25;2.78;;;23.30;99.90;;;;;;5013001;28;20175;-83
2022/08/15 04:22:02;;;;;;;2.65;2.42;;;23.40;99.90;;;;;;5012687;28;20561;-83
2022/08/15 04:24:27;;;;;;;4.10;3.05;;;23.30;99.90;;;;;;5014093;28;20180;-82
2022/08/15 04:26:53;;;;;;;6.72;2.45;;;23.30;99.90;;;;;;5012552;28;20267;-82
2022/08/15 04:29:18;;;;;;;3.58;2.47;;;23.40;99.90;;;;;;5012685;28;20173;-82
2022/08/15 04:31:44;;;;;;;9.05;3.25;;;23.40;99.90;;;;;;5012544;28;20219;-82
2022/08/15 04:34:09;;;;;;;7.15;2.67;;;23.50;99.90;;;;;;5013931;28;20688;-83
2022/08/15 04:36:36;;;;;;;3.17;2.28;;;23.40;99.90;;;;;;5012593;28;20176;-84
2022/08/15 04:39:02;;;;;;;5.28;2.53;;;23.20;99.90;;;;;;5012666;28;20260;-82
2022/08/15 04:41:31;;;;;;;5.45;3.03;;;23.20;99.90;;;;;;5012340;28;20251;-83
2022/08/15 04:43:57;;;;;;;4.43;2.45;;;23.30;99.90;;;;;;5012542;28;20172;-84
2022/08/15 04:46:22;;;;;;;4.97;2.70;;;23.20;99.90;;;;;;5013935;28;20231;-84
2022/08/15 04:48:48;;;;;;;3.78;2.63;;;23.20;99.90;;;;;;5012539;28;20168;-82
2022/08/15 04:51:13;;;;;;;4.55;3.50;;;23.20;99.90;;;;;;5011997;28;20193;-83
2022/08/15 04:53:39;;;;;;;2.78;2.58;;;23.10;99.90;;;;;;5012255;28;20705;-83
2022/08/15 04:56:06;;;;;;;6.05;2.67;;;23.20;99.90;;;;;;5013665;28;20184;-82
2022/08/15 04:58:32;;;;;;;10.82;3.00;;;23.10;99.90;;;;;;5011932;28;20607;-83
2022/08/15 05:01:02;;;;;;;3.88;2.45;;;23.20;99.90;;;;;;5012931;28;20242;-83
2022/08/15 05:03:28;;;;;;;3.78;2.67;;;23.30;99.90;;;;;;5011232;28;20176;-83
2022/08/15 05:06:00;;;;;;;4.32;2.42;;;23.40;99.90;;;;;;5013425;28;20169;-83
2022/08/15 05:08:27;;;;;;;4.72;2.40;;;23.40;99.90;;;;;;5013302;28;20160;-85
2022/08/15 05:11:03;;;;;;;6.43;2.85;;;23.40;99.90;;;;;;5011887;28;20612;-85
2022/08/15 05:13:32;;;;;;;4.70;2.78;;;23.50;99.90;;;;;;5012186;28;20188;-83
2022/08/15 05:15:58;;;;;;;7.85;2.95;;;23.50;99.90;;;;;;5012056;28;20179;-83
2022/08/15 05:18:26;;;;;;;6.40;3.13;;;23.60;99.90;;;;;;5012130;28;20214;-83
2022/08/15 05:20:52;;;;;;;3.45;2.83;;;23.40;99.90;;;;;;5011834;28;20242;-83
2022/08/15 05:23:19;;;;;;;8.02;2.78;;;23.40;99.90;;;;;;5013151;28;20188;-83
2022/08/15 05:25:49;;;;;;;2.55;2.33;;;23.20;99.90;;;;;;5013241;28;20633;-84
2022/08/15 05:28:14;;;;;;;6.82;3.13;;;23.20;99.90;;;;;;5011742;28;20251;-84
2022/08/15 05:30:41;;;;;;;13.25;3.28;;;23.20;99.90;;;;;;5011973;28;20287;-90
2022/08/15 05:33:19;;;;;;;3.38;3.08;;;23.10;99.90;;;;;;5011720;28;20208;-84
2022/08/15 05:35:49;;;;;;;4.97;3.30;;;23.10;99.90;;;;;;5011649;28;20227;-84
2022/08/15 05:38:21;;;;;;;5.70;2.65;;;23.10;99.90;;;;;;5012093;28;20503;-83
2022/08/15 05:41:18;;;;;;;3.65;3.17;;;23.30;99.90;;;;;;5015402;28;20525;-84
2022/08/15 05:44:21;;;;;;;5.15;3.50;;;23.40;99.90;;;;;;5012497;28;20321;-83
2022/08/15 05:47:36;;;;;;;3.42;2.95;;;23.30;99.90;;;;;;5018753;28;20157;-83
2022/08/15 05:50:22;;;;;;;9.05;3.03;;;23.30;99.90;;;;;;5015007;28;20196;-83
2022/08/15 05:52:50;;;;;;;3.60;3.30;;;23.40;99.90;;;;;;5015086;28;20227;-85
2022/08/15 05:55:21;;;;;;;5.00;3.25;;;23.30;99.90;;;;;;5012915;28;20173;-87
2022/08/15 05:58:20;;;;;;;4.93;3.05;;;23.50;99.90;;;;;;5013196;28;20164;-87
2022/08/15 06:01:01;;;;;;;8.20;3.40;;;23.60;99.90;;;;;;5010357;28;20584;-87
2022/08/15 06:03:28;;;;;;;6.78;3.20;;;23.60;99.90;;;;;;5014189;28;20643;-89
2022/08/15 06:05:56;;;;;;;6.70;3.08;;;23.50;99.90;;;;;;5038165;28;20175;-86
2022/08/15 06:08:29;;;;;;;3.28;2.90;;;23.40;99.90;;;;;;5037510;28;20191;-89
2022/08/15 06:11:19;;;;;;;4.53;3.08;;;23.40;99.90;;;;;;5037901;28;20172;-89
2022/08/15 06:13:50;;;;;;;6.65;3.70;;;23.40;99.90;;;;;;5037452;28;20169;-92
2022/08/15 06:16:36;;;;;;;5.10;3.22;;;23.10;99.90;;;;;;5041592;28;20168;-87
2022/08/15 06:19:06;;;;;;;7.82;4.28;;;23.20;99.90;;;;;;5033944;28;20184;-84
2022/08/15 06:21:53;;;;;;;8.48;3.22;;;23.20;99.90;;;;;;5032092;28;20195;-90
2022/08/15 06:24:30;;;;;;;9.75;3.47;;;23.30;99.90;;;;;;5027569;28;20172;-88
2022/08/15 06:26:58;;;;;;;5.30;3.42;;;23.30;99.90;;;;;;5028750;28;20180;-91
2022/08/15 06:29:40;;;;;;;13.30;3.67;;;23.40;99.90;;;;;;5027438;28;20172;-89
2022/08/15 06:32:11;;;;;;;7.10;4.10;;;23.40;99.90;;;;;;5025743;28;20216;-88
2022/08/15 06:34:56;;;;;;;5.30;3.22;;;23.30;99.90;;;;;;5025530;28;20541;-93
2022/08/15 06:37:37;;;;;;;10.25;3.38;;;23.60;99.90;;;;;;5025502;28;20180;-91
2022/08/15 06:40:11;;;;;;;11.05;3.40;;;23.70;99.90;;;;;;5030737;28;20227;-91
2022/08/15 06:42:45;;;;;;;10.88;3.63;;;23.40;99.90;;;;;;5033196;28;20186;-81
2022/08/15 06:45:40;;;;;;;7.03;3.30;;;23.30;99.90;;;;;;5033500;28;20243;-86
2022/08/15 06:48:11;;;;;;;5.43;3.03;;;23.40;99.90;;;;;;5022823;28;20611;-90
2022/08/15 06:50:41;;;;;;;3.53;2.88;;;23.60;99.90;;;;;;5019542;28;20192;-94
2022/08/15 06:53:18;;;;;;;6.82;3.83;;;23.50;99.90;;;;;;5020055;28;20208;-91
2022/08/15 06:56:14;;;;;;;11.63;2.95;;;23.70;99.90;;;;;;5019743;28;20164;-92
2022/08/15 06:58:57;;;;;;;18.38;3.45;;;24.00;99.90;;;;;;5000025;28;20242;-94
2022/08/15 07:01:39;;;;;;;5.03;3.40;;;24.00;99.90;;;;;;5018120;28;20180;-92
2022/08/15 07:04:34;;;;;;;6.43;3.53;;;23.90;99.90;;;;;;5018507;28;20200;-89
2022/08/15 07:07:17;;;;;;;4.55;4.05;;;24.00;99.90;;;;;;5018713;28;20202;-92
2022/08/15 07:10:16;;;;;;;4.75;3.83;;;24.00;99.90;;;;;;5020538;28;20179;-85
2022/08/15 07:13:05;;;;;;;9.43;3.40;;;24.10;99.90;;;;;;5020871;28;20208;-90
2022/08/15 07:15:37;;;;;;;9.02;4.15;;;24.30;99.90;;;;;;5019428;28;20196;-94
2022/08/15 07:18:44;;;;;;;5.22;4.30;;;24.40;99.90;;;;;;5020392;28;20176;-87
2022/08/15 07:21:15;;;;;;;6.30;4.15;;;24.50;99.90;;;;;;5025655;28;20220;-83
2022/08/15 07:24:11;;;;;;;8.02;4.82;;;24.50;99.90;;;;;;5017250;28;20188;-89
2022/08/15 07:26:46;;;;;;;7.05;5.43;;;24.70;99.90;;;;;;5015294;28;20173;-89
2022/08/15 07:29:40;;;;;;;5.15;4.65;;;24.60;99.90;;;;;;5017243;28;20164;-89
2022/08/15 07:32:14;;;;;;;8.02;3.35;;;24.80;99.90;;;;;;5016376;28;20231;-87
2022/08/15 07:35:09;;;;;;;8.20;3.22;;;25.00;99.90;;;;;;5015594;28;20176;-88
2022/08/15 07:37:37;;;;;;;5.80;4.05;;;25.10;99.90;;;;;;5007037;28;20239;-88
2022/08/15 07:40:14;;;;;;;8.27;3.67;;;25.10;99.90;;;;;;5019751;28;20156;-93
2022/08/15 07:42:43;;;;;;;4.65;3.47;;;25.20;99.90;;;;;;5019302;28;20275;-92
2022/08/15 07:45:20;;;;;;;10.82;5.18;;;25.40;99.90;;;;;;5017990;28;20180;-93
2022/08/15 07:48:03;;;;;;;10.23;4.78;;;25.20;99.90;;;;;;5020148;28;20197;-88
2022/08/15 07:50:42;;;;;;;5.72;2.85;;;25.20;99.90;;;;;;5019363;28;20339;-91
2022/08/15 07:53:13;;;;;;;7.18;3.72;;;25.30;99.90;;;;;;5020716;28;20208;-85
2022/08/15 07:56:04;;;;;;;14.88;3.50;;;25.00;99.90;;;;;;5022658;28;20179;-88
2022/08/15 07:58:32;;;;;;;3.85;3.55;;;25.10;99.90;;;;;;5025570;28;20176;-87
2022/08/15 08:01:07;;;;;;;6.10;3.42;;;25.20;99.90;;;;;;5033723;28;20168;-91
2022/08/15 08:03:37;;;;;;;5.80;3.40;;;25.40;99.90;;;;;;5033985;28;20271;-88
2022/08/15 08:06:28;;;;;;;11.50;3.63;;;25.40;99.90;;;;;;5026675;28;20637;-89
2022/08/15 08:09:29;;;;;;;6.28;3.22;;;25.40;99.90;;;;;;5025194;28;20179;-86
2022/08/15 08:12:21;;;;;;;5.40;3.13;;;25.50;99.90;;;;;;5029310;28;20220;-84
2022/08/15 08:15:18;;;;;;;9.23;2.88;;;25.50;99.90;;;;;;5030755;28;20161;-84
2022/08/15 08:18:19;;;;;;;3.78;2.88;;;25.40;99.90;;;;;;5029555;28;20173;-88
2022/08/15 08:21:02;;;;;;;5.22;3.42;;;25.80;99.90;;;;;;5012066;28;20262;-81
2022/08/15 08:23:39;;;;;;;8.90;3.80;;;25.70;99.90;;;;;;5011509;28;20205;-93
2022/08/15 08:26:08;;;;;;;9.57;3.58;;;25.70;99.90;;;;;;5002307;28;20211;-94
2022/08/15 08:29:03;;;;;;;5.85;3.28;;;26.00;99.90;;;;;;4996694;28;20185;-82
2022/08/15 08:31:59;;;;;;;5.90;3.25;;;26.10;99.90;;;;;;4987399;28;20208;-88
2022/08/15 08:34:40;;;;;;;4.28;3.42;;;26.10;99.90;;;;;;5020683;28;20196;-87
2022/08/15 08:37:25;;;;;;;4.47;3.72;;;25.70;99.90;;;;;;4999721;28;20172;-87
2022/08/15 08:42:59;;;;;;;5.05;3.45;;;26.10;99.90;;;;;;5032139;28;20324;-87
2022/08/15 08:45:43;;;;;;;4.32;3.10;;;26.40;99.90;;;;;;5015998;28;20176;-85
2022/08/15 08:48:30;;;;;;;4.22;2.85;;;26.60;99.90;;;;;;5001089;28;20181;-87
2022/08/15 08:51:14;;;;;;;3.15;2.85;;;26.80;99.90;;;;;;4977920;28;20308;-86
2022/08/15 08:53:55;;;;;;;23.73;3.30;;;27.10;99.90;;;;;;4997302;28;20195;-90
2022/08/15 08:56:37;;;;;;;4.07;2.50;;;27.20;99.90;;;;;;5011729;28;20279;-86
2022/08/15 08:59:31;;;;;;;11.13;2.85;;;27.20;99.90;;;;;;5000139;28;20260;-93
2022/08/15 09:02:08;;;;;;;2.28;2.13;;;27.40;99.90;;;;;;5011861;28;20270;-87
2022/08/15 09:04:42;;;;;;;10.27;2.63;;;27.70;99.90;;;;;;5018195;28;20230;-86
2022/08/15 09:07:09;;;;;;;7.22;2.72;;;27.80;99.90;;;;;;5014499;28;20168;-88
2022/08/15 09:09:39;;;;;;;4.07;2.85;;;27.80;99.90;;;;;;5013645;28;20176;-88
2022/08/15 09:15:07;;;;;;;3.55;2.80;;;28.20;99.90;;;;;;5008128;28;20188;-90
2022/08/15 09:17:36;;;;;;;8.13;2.72;;;28.50;99.90;;;;;;4995457;28;20264;-88
2022/08/15 09:20:29;;;;;;;4.60;2.80;;;28.60;99.90;;;;;;4994524;28;20177;-84
2022/08/15 09:22:55;;;;;;;2.75;2.55;;;28.70;99.90;;;;;;5018743;28;20203;-90
2022/08/15 09:25:27;;;;;;;3.50;3.20;;;28.90;99.90;;;;;;4994016;28;20165;-84
2022/08/15 09:28:09;;;;;;;7.45;2.50;;;28.80;99.90;;;;;;5004421;28;20172;-85
2022/08/15 09:30:35;;;;;;;4.75;3.00;;;28.70;99.90;;;;;;5012692;28;20300;-84
2022/08/15 09:33:07;;;;;;;4.63;3.00;;;28.70;99.90;;;;;;5013109;28;20200;-86
2022/08/15 09:35:45;;;;;;;4.30;2.35;;;28.60;99.90;;;;;;5018979;28;20171;-86
2022/08/15 09:38:37;;;;;;;8.65;2.97;;;28.80;99.90;;;;;;5032900;28;20167;-85
2022/08/15 09:41:42;;;;;;;3.78;2.80;;;28.50;99.90;;;;;;5017977;28;20212;-88
2022/08/15 09:44:32;;;;;;;18.73;2.47;;;28.90;99.90;;;;;;4998158;28;20548;-89
2022/08/15 09:47:14;;;;;;;4.93;2.25;;;28.80;99.90;;;;;;4993717;28;20185;-90
2022/08/15 09:50:01;;;;;;;6.15;2.88;;;29.30;99.90;;;;;;4993798;28;20185;-91
2022/08/15 09:52:36;;;;;;;3.13;2.40;;;29.40;99.90;;;;;;5012067;28;20211;-89
2022/08/15 09:55:28;;;;;;;6.05;2.25;;;29.60;99.90;;;;;;5014058;28;20255;-87
2022/08/15 09:57:56;;;;;;;4.78;2.38;;;29.50;99.90;;;;;;5016328;28;20170;-92
2022/08/15 10:00:30;;;;;;;2.47;2.00;;;29.60;99.90;;;;;;5018488;28;20241;-88
2022/08/15 10:03:05;;;;;;;5.50;2.25;;;29.60;99.90;;;;;;5015711;28;20259;-85
2022/08/15 10:06:04;;;;;;;5.95;2.40;;;29.70;99.90;;;;;;5015631;28;20243;-88
2022/08/15 10:08:54;;;;;;;2.83;2.53;;;29.80;99.90;;;;;;5012752;28;20203;-85
2022/08/15 10:11:30;;;;;;;4.05;2.53;;;29.60;99.90;;;;;;5015467;28;20255;-87
2022/08/15 10:14:07;;;;;;;6.63;2.47;;;29.80;99.90;;;;;;5015753;28;20176;-93
2022/08/15 10:16:36;;;;;;;3.00;2.45;;;29.80;99.90;;;;;;5013933;28;20176;-90
2022/08/15 10:19:09;;;;;;;5.45;2.42;;;29.30;99.90;;;;;;5014372;28;20203;-87
2022/08/15 10:21:40;;;;;;;3.85;2.60;;;29.10;99.90;;;;;;5013942;28;20235;-89
2022/08/15 10:24:24;;;;;;;6.50;2.53;;;29.20;99.90;;;;;;5013587;28;20183;-89
2022/08/15 10:27:07;;;;;;;3.60;2.45;;;29.40;99.90;;;;;;5013255;28;20198;-86
2022/08/15 10:29:34;;;;;;;7.65;2.55;;;29.50;99.90;;;;;;5014312;28;20175;-87
2022/08/15 10:32:02;;;;;;;4.25;2.58;;;29.30;99.90;;;;;;5014923;28;20239;-89
2022/08/15 10:34:49;;;;;;;5.95;2.60;;;29.30;99.90;;;;;;5014516;28;20271;-84
2022/08/15 10:37:20;;;;;;;8.18;2.90;;;29.30;99.90;;;;;;5013230;28;20651;-86
2022/08/15 10:39:57;;;;;;;5.40;2.42;;;29.70;99.90;;;;;;5012823;28;20172;-86
2022/08/15 10:42:29;;;;;;;6.97;3.05;;;30.10;99.90;;;;;;5012354;28;20175;-86
2022/08/15 10:45:02;;;;;;;3.05;2.75;;;30.00;99.90;;;;;;5011911;28;20234;-85
2022/08/15 10:47:42;;;;;;;5.45;2.63;;;29.60;99.90;;;;;;5012519;28;20172;-87
2022/08/15 10:50:09;;;;;;;5.60;3.30;;;29.40;99.90;;;;;;5013732;28;20235;-87
2022/08/15 10:52:54;;;;;;;7.47;3.60;;;29.40;99.90;;;;;;5012347;28;20212;-87
2022/08/15 10:55:27;;;;;;;4.82;3.35;;;29.50;99.90;;;;;;5016542;28;20278;-87
2022/08/15 10:58:00;;;;;;;3.50;3.20;;;29.70;99.90;;;;;;5012361;28;20183;-86
2022/08/15 11:00:41;;;;;;;4.97;3.20;;;29.60;99.90;;;;;;5012163;28;20191;-88
2022/08/15 11:03:19;;;;;;;3.33;3.03;;;29.60;99.90;;;;;;5016270;28;20168;-86
2022/08/15 11:06:01;;;;;;;4.80;3.20;;;29.50;99.90;;;;;;5016314;28;20198;-87
2022/08/15 11:08:27;;;;;;;8.35;3.08;;;29.40;99.90;;;;;;5016347;28;20656;-86
2022/08/15 11:11:08;;;;;;;8.32;3.47;;;29.50;99.90;;;;;;5014891;28;20223;-86
2022/08/15 11:13:36;;;;;;;3.47;3.17;;;29.50;99.90;;;;;;5016425;28;20559;-88
2022/08/15 11:16:13;;;;;;;5.15;4.40;;;29.40;99.90;;;;;;5015209;28;20168;-87
2022/08/15 11:18:52;;;;;;;4.47;3.83;;;29.30;99.90;;;;;;5015471;28;20246;-87
2022/08/15 11:21:34;;;;;;;5.50;3.70;;;29.20;99.90;;;;;;5016622;28;20202;-87
2022/08/15 11:24:06;;;;;;;8.10;3.13;;;29.10;99.90;;;;;;5023824;28;20282;-90
2022/08/15 11:26:43;;;;;;;4.00;2.88;;;29.20;99.90;;;;;;5028349;28;20165;-83
2022/08/15 11:29:15;;;;;;;9.05;3.53;;;28.90;99.90;;;;;;5035155;28;20180;-84
2022/08/15 11:32:22;;;;;;;7.97;3.40;;;28.70;99.90;;;;;;5056907;23;20203;-83
2022/08/15 11:35:23;;;;;;;5.13;2.80;;;28.80;99.90;;;;;;5056435;28;20206;-84
2022/08/15 11:38:04;;;;;;;10.05;2.90;;;28.90;99.90;;;;;;5055252;28;20174;-82
2022/08/15 11:40:35;;;;;;;6.45;3.15;;;28.60;99.90;;;;;;5048752;28;20222;-88
2022/08/15 11:43:05;;;;;;;2.92;2.67;;;28.50;99.90;;;;;;5031334;28;20169;-85
2022/08/15 11:45:57;;;;;;;5.53;3.30;;;28.50;99.90;;;;;;5032930;28;20177;-92
2022/08/15 11:48:48;;;;;;;5.35;3.08;;;28.80;99.90;;;;;;5032267;28;20164;-86
2022/08/15 11:51:45;;;;;;;3.53;2.97;;;28.80;99.90;;;;;;5030529;28;20223;-93
2022/08/15 11:54:52;;;;;;;3.63;3.33;;;28.90;99.90;;;;;;5037403;28;20160;-84
2022/08/15 11:57:22;;;;;;;4.55;3.33;;;29.00;99.90;;;;;;5035725;28;20183;-84
2022/08/15 12:00:23;;;;;;;5.78;3.58;;;29.20;99.90;;;;;;5035835;28;20169;-90
2022/08/15 12:03:30;;;;;;;7.38;3.33;;;29.20;99.90;;;;;;5026705;28;20199;-82
2022/08/15 12:06:53;;;;;;;7.15;3.78;;;29.40;99.90;;;;;;5036346;28;20187;-83
2022/08/15 12:09:39;;;;;;;5.72;3.40;;;29.50;99.90;;;;;;5036287;28;20176;-86
2022/08/15 12:12:24;;;;;;;10.77;3.75;;;29.20;99.90;;;;;;5057781;23;20211;-83
2022/08/15 12:15:40;;;;;;;7.47;4.03;;;28.90;99.90;;;;;;5055977;28;20195;-82
2022/08/15 12:19:01;;;;;;;5.03;3.88;;;29.20;99.90;;;;;;5054948;28;20218;-83
2022/08/15 12:21:51;;;;;;;6.00;3.80;;;29.50;99.90;;;;;;5040985;23;20239;-93
2022/08/15 12:24:37;;;;;;;8.10;4.22;;;29.70;99.90;;;;;;5056449;28;20163;-82
2022/08/15 12:27:06;;;;;;;4.22;3.83;;;29.80;99.90;;;;;;5056379;28;20155;-86
2022/08/15 12:29:42;;;;;;;13.35;4.05;;;29.90;99.90;;;;;;5054108;28;20219;-94
2022/08/15 12:32:14;;;;;;;7.68;4.05;;;30.00;99.90;;;;;;5036293;28;20393;-84
2022/08/15 12:34:48;;;;;;;9.02;3.67;;;30.30;99.90;;;;;;5037763;28;20172;-83
2022/08/15 12:37:19;;;;;;;5.63;4.10;;;30.30;99.90;;;;;;5035358;28;20184;-94
2022/08/15 12:39:59;;;;;;;4.60;3.53;;;29.80;99.90;;;;;;5014103;28;20664;-87
2022/08/15 12:42:47;;;;;;;3.80;3.50;;;29.60;99.90;;;;;;5012438;28;20184;-85
2022/08/15 12:45:21;;;;;;;4.05;3.65;;;29.60;99.90;;;;;;5032095;28;20183;-89
2022/08/15 12:48:23;;;;;;;6.60;3.60;;;29.80;99.90;;;;;;5034706;28;20183;-86
2022/08/15 12:50:49;;;;;;;4.30;3.85;;;30.10;99.90;;;;;;5032566;28;20196;-91
2022/08/15 12:53:16;;;;;;;4.60;3.38;;;30.20;99.90;;;;;;5033055;28;20199;-88
2022/08/15 12:55:45;;;;;;;3.78;3.47;;;30.40;99.90;;;;;;5026852;28;20179;-91
2022/08/15 12:58:11;;;;;;;4.32;3.38;;;30.80;99.90;;;;;;5030281;28;20636;-92
2022/08/15 13:00:37;;;;;;;4.70;3.53;;;30.80;99.90;;;;;;5019619;28;20198;-91
2022/08/15 13:03:26;;;;;;;7.18;3.03;;;31.20;99.90;;;;;;5018784;28;20167;-92
2022/08/15 13:06:02;;;;;;;4.15;3.65;;;30.70;99.90;;;;;;5020466;28;20183;-88
2022/08/15 13:08:28;;;;;;;7.22;3.88;;;30.50;99.90;;;;;;5023324;28;20222;-89
2022/08/15 13:10:55;;;;;;;7.45;3.92;;;30.10;99.90;;;;;;5023521;28;20192;-84
2022/08/15 13:13:21;;;;;;;5.38;3.60;;;30.40;99.90;;;;;;5024504;28;20216;-86
2022/08/15 13:15:48;;;;;;;4.82;3.13;;;30.40;99.90;;;;;;5010344;28;20169;-91
2022/08/15 13:18:21;;;;;;;7.82;3.75;;;30.70;99.90;;;;;;5004294;28;20708;-95
2022/08/15 13:23:35;;;;;;;9.43;3.72;;;30.60;99.90;;;;;;5018692;28;20596;-90
2022/08/15 13:26:01;;;;;;;19.02;4.38;;;30.40;99.90;;;;;;5016971;28;20182;-92
2022/08/15 13:28:26;;;;;;;11.38;3.30;;;30.40;99.90;;;;;;5023395;28;20202;-94
2022/08/15 13:30:52;;;;;;;4.63;3.47;;;30.30;99.90;;;;;;5031125;28;20200;-84
2022/08/15 13:33:18;;;;;;;6.70;3.33;;;30.50;99.90;;;;;;5032361;28;20263;-84
2022/08/15 13:35:44;;;;;;;9.45;3.53;;;30.70;99.90;;;;;;5030804;28;20207;-91